Station info - map view · info · telemetry · weather · raw · status · beacons · messages · bulletins · browse · moving · my account
Callsign, ship name or locator: Clear       
It is possible to search using wildcards (*?) after a prefix. Example: OH*
APRS station DB8SEW-9 - show graphs
Map loading...
Mic-E message: En route
Location: 51°10.88' N 22°04.18' E - locator KO11AE83IM - show map - static map
2.7 miles West bearing 272° from Poniatowa, Powiat opolski, Lublin Voivodeship, Poland [?]
4.9 miles Northeast bearing 62° from Opole Lubelskie, Powiat opolski, Lublin Voivodeship, Poland
22.0 miles West bearing 258° from Lublin, Lublin Voivodeship, Poland
85.4 miles Southeast bearing 148° from Warsaw, Masovian Voivodeship, Poland
Last position: 2019-04-19 10:17:25 EDT (2d 6h21m ago)
2019-04-19 16:17:25 CEST local time at Poniatowa, Poland [?]
Altitude: 482 ft
Course: 287°
Speed: 22 MPH
Device: Yaesu: FTM-400DR (rig)
Last path: DB8SEW-9>UQ1P88 via qAS,SR8NPU-10
Positions stored: 10959
Packet rate: 124 seconds between packets on average during 6059 seconds.
Other SSIDs: DB8SEW DB8SEW-10 DB8SEW-7
Stations near current position of DB8SEW-9 - show more
callsign distance last heard - EDT      callsign distance last heard - EDT
SQ8J-100.4 miles 78°2019-04-21 16:07:29 P36100502.9 miles 327°2019-03-26 21:01:19
SQ7OWN-63.9 miles 308°2019-03-27 10:08:22 P36100655.6 miles 292°2019-03-27 09:20:00
SQ8MFO-56.0 miles 101°2019-04-21 14:33:43 SQ7BR-99.6 miles 41°2019-04-05 10:15:45
438.850PU10.9 miles 336°2019-04-21 16:30:56 SR8NPU10.9 miles 336°2019-04-21 16:29:56
439.462PU10.9 miles 336°2019-04-21 16:31:56 SR8NPU-1010.9 miles 336°2019-04-21 16:11:01
0SR8NP6610.9 miles 336°2019-04-19 20:34:02 SR8UVP-B10.9 miles 336°2019-04-21 16:22:54
SR8UVP B10.9 miles 336°2019-04-21 16:22:44 SR8DVP B10.9 miles 336°2019-04-21 16:25:04
SR8DVP-B10.9 miles 336°2019-04-21 16:25:14 SP8RSL-511.1 miles 324°2019-04-02 10:10:10
SQ8PKI B12.9 miles 194°2019-04-20 10:08:14 SQ8PKI-B12.9 miles 194°2019-04-20 10:08:24
SQ8AGI-X13.1 miles 311°2019-04-19 23:01:31 SQ8DRH13.9 miles 191°2019-04-20 03:21:22
Stations which heard DB8SEW-9 directly on radio –
callsign pkts first heard - EDT last heard longest (tx => rx) longest at - EDT
SR3NWY 5 2019-04-19 05:30:23 2019-04-19 05:50:22 JO92DD > JO82SB 30.3 miles 259° 2019-04-19 05:50:22
SR3DPN 11 2019-04-19 04:08:54 2019-04-19 04:58:17 JO82HI > JO82LJ 12.1 miles 72° 2019-04-19 04:08:54
SR5DRA-10 4 2019-04-19 08:20:50 2019-04-19 09:04:55 KO01MN > KO01NJ 10.9 miles 155° 2019-04-19 08:20:50
SR3NJE 2 2019-04-19 03:27:00 2019-04-19 03:39:05 JO72TH > JO72PI 16.2 miles 280° 2019-04-19 03:39:05
DB0FUZ 2 2019-04-19 02:21:59 2019-04-19 02:22:30 JO62UH > JO62TK 9.3 miles 327° 2019-04-19 02:22:30
SP7PGK-15 1 2019-04-19 06:29:56 2019-04-19 06:29:56 JO91PW > JO91RR 16.3 miles 143° 2019-04-19 06:29:56
SP3WBX 1 2019-04-19 04:37:14 2019-04-19 04:37:14 JO82JI > JO82KF 8.2 miles 153° 2019-04-19 04:37:14
DB0GSH 1 2019-04-19 00:51:10 2019-04-19 00:51:10 JO52LG > JO51EV 34.7 miles 225° 2019-04-19 00:51:10
SQ3KNO 3 2019-04-19 03:54:50 2019-04-19 04:06:50 JO82CI > JO82EH 10.2 miles 114° 2019-04-19 03:54:50
SR5DRK 27 2019-04-19 07:27:52 2019-04-19 09:36:41 KO01TF > KO01GI 45.0 miles 282° 2019-04-19 09:36:41
SP3LOZ 6 2019-04-19 04:10:57 2019-04-19 04:44:05 JO82II > JO82IJ 2.6 miles 34° 2019-04-19 04:10:57
SQ7FZR-2 3 2019-04-19 09:14:55 2019-04-19 09:19:25 KO01SI > KO01RL 10.2 miles 324° 2019-04-19 09:19:25
DL9OBM-10 2 2019-04-19 00:20:51 2019-04-19 00:32:55 JO52EI > JO52BM 16.3 miles 324° 2019-04-19 00:32:55
DO1TNP-10 4 2019-04-19 00:22:51 2019-04-19 00:30:55 JO52AJ > JO52CI 6.3 miles 112° 2019-04-19 00:22:51
SQ5MJA 1 2019-04-19 09:10:55 2019-04-19 09:10:55 KO01RI > KO01OI 12.4 miles 271° 2019-04-19 09:10:55
SR7NWL-10 2 2019-04-19 07:09:36 2019-04-19 07:25:52 KO01GX > KO01BX 15.6 miles 267° 2019-04-19 07:25:52
DB0LDS 2 2019-04-19 02:19:52 2019-04-19 02:26:39 JO62VH > JO62TH 8.1 miles 272° 2019-04-19 02:26:39
DB0ROD 2 2019-04-18 23:46:05 2019-04-19 00:08:51 JO42SU > JO42QH 40.6 miles 191° 2019-04-18 23:46:05
DB0FFO 1 2019-04-19 02:54:52 2019-04-19 02:54:52 JO72HH > JO72HD 13.1 miles 176° 2019-04-19 02:54:52
SP3YEE 19 2019-04-19 03:56:50 2019-04-19 05:19:19 JO82DJ > JO82KL 27.7 miles 78° 2019-04-19 03:56:50
DL2HSI-10 1 2019-04-19 01:13:15 2019-04-19 01:13:15 JO52UF > JO52VK 15.3 miles 16° 2019-04-19 01:13:15
DB0LOS 7 2019-04-19 02:19:58 2019-04-19 03:02:15 JO72HE > JO72AH 26.0 miles 294° 2019-04-19 03:02:15
DB0RNG 19 2019-04-05 09:17:14 2019-04-19 00:00:47 JO42UQ > JO43UA 22.7 miles 358° 2019-04-19 00:00:47
DH0BRO-1 3 2019-04-19 01:41:27 2019-04-19 01:57:27 JO62GI > JO62LI 16.5 miles 88° 2019-04-19 01:41:27
SP7XFF-1 13 2019-04-19 08:30:50 2019-04-19 08:52:47 KO01NL > KO01NJ 5.5 miles 187° 2019-04-19 08:30:50
DO7AD-10 1 2019-04-19 00:59:07 2019-04-19 00:59:07 JO52OE > JO51KU 28.9 miles 215° 2019-04-19 00:59:07
SR8NDN 3 2019-04-19 09:20:09 2019-04-19 09:34:10 KO01SF > KO01WN 24.6 miles 28° 2019-04-19 09:34:10
SR3NPB 2 2019-04-19 04:24:56 2019-04-19 04:29:38 JO82II > JO82PL 24.8 miles 69° 2019-04-19 04:24:56
DM0MGB 3 2019-04-19 01:07:17 2019-04-19 01:15:18 JO52VF > JO52TD 7.8 miles 236° 2019-04-19 01:15:18
SQ5OUZ-10 5 2019-04-19 08:48:16 2019-04-19 08:58:51 KO01PJ > KO01OJ 4.0 miles 290° 2019-04-19 08:58:51
SP3KWA-4 12 2019-04-19 05:48:17 2019-04-19 06:19:55 JO92LA > JO92FA 19.2 miles 271° 2019-04-19 06:19:55
DO0FWH 2 2019-04-19 01:19:25 2019-04-19 01:27:24 JO62CG > JO62AG 7.5 miles 276° 2019-04-19 01:27:24
DB0TVH-10 3 2019-04-19 00:12:51 2019-04-19 00:16:51 JO42WL > JO42UJ 8.4 miles 209° 2019-04-19 00:12:51
SR5NEB 1 2019-04-19 07:19:48 2019-04-19 07:19:48 KO02FA > KO02HC 9.6 miles 58° 2019-04-19 07:19:48
DB0PDM 1 2019-04-19 01:59:28 2019-04-19 01:59:28 JO62NH > JO62MI 4.3 miles 350° 2019-04-19 01:59:28
SR8NPU-10 15 2019-04-19 09:12:55 2019-04-19 10:17:25 KO01SI > KO01XH 20.0 miles 98° 2019-04-19 09:12:55
SR5ND 2 2019-04-19 07:13:41 2019-04-19 07:23:52 KO02FA > KO02JK 32.4 miles 22° 2019-04-19 07:23:52
DB0LUD 2 2019-04-19 02:03:40 2019-04-19 02:07:44 JO62QH > JO62PH 3.5 miles 279° 2019-04-19 02:07:44
DB0OI 1 2019-04-19 00:43:09 2019-04-19 00:43:09 JO52IH > JO52GG 8.4 miles 253° 2019-04-19 00:43:09
DO1IBS-4 3 2019-04-18 23:40:00 2019-04-18 23:49:34 JO42SV > JO42SU 4.4 miles 213° 2019-04-18 23:40:00
SR5NWA 9 2019-04-19 07:15:44 2019-04-19 08:00:30 KO02EB > KO02MD 28.7 miles 78° 2019-04-19 07:15:44
DL9CK 1 2019-04-19 01:03:16 2019-04-19 01:03:16 JO52QE > JO52RA 10.7 miles 164° 2019-04-19 01:03:16
SP7ELC-5 12 2019-04-19 06:43:24 2019-04-19 07:13:40 JO91TV > JO92XC 21.0 miles 40° 2019-04-19 06:43:24
SP3GW-1 37 2019-04-19 04:12:36 2019-04-19 05:18:15 JO82PH > JO82LJ 16.7 miles 291° 2019-04-19 05:18:15
DB0PTB 5 2019-04-19 00:34:59 2019-04-19 00:47:07 JO52KH > JO52FH 16.4 miles 269° 2019-04-19 00:47:07

Only position packets which were originated by the station are shown here. The range statistics show some extra long hops, because some digipeaters do not correctly add themselves to the digipeater path. Please check the raw packets.
About this site
This page shows real-time information collected from the Automatic Position Reporting System Internet network (APRS-IS). APRS is used by amateur (ham) radio operators to transmit real-time position information, weather data, telemetry and messages over the radio. A vehicle equipped with a GPS receiver, a VHF transmitter or HF transceiver and a small computer device called a tracker transmits it's location, speed and course in a small data packet, which is then received by a nearby iGate receiving site which forwards the packet on the Internet. Systems connected to the Internet can send information on the APRS-IS without a radio transmitter, or collect and display information transmitted anywhere in the world.
FAQ · Blog · Discussion group · Linking to aprs.fi · AIS sites · Service status · Database statistics · Advertising on aprs.fi · Technical details · API · Change log · Planned changes · Credits and thanks · Terms Of Service · iPhone/iPad APRS